Terminal Aerodrome Forecast
Issued by NWS

Home | Current Version | Previous Version | Text Only | Print | Product List | Glossary On
Versions: 1 2 3 4 5 6 7 8 9 10 11 12 13 14
000
FTUS46 KPDT 282300
TAFBDN
TAF
KBDN 282320Z 2900/2924 01008KT P6SM BKN200
     FM290300 VRB04KT P6SM BKN200
     FM290900 21004KT P6SM SCT090
     FM292000 33008KT P6SM FEW150=

USA.gov is the U.S. government's official web portal to all federal, state and local government web resources and services.